createdAt,value
2018-02-22T00:00:06.602Z,45.41
2018-02-22T00:02:34.070Z,46.01
2018-02-22T00:05:01.558Z,45.92
2018-02-22T00:07:29.006Z,46.40
2018-02-22T00:09:56.505Z,45.82
2018-02-22T00:12:23.973Z,45.85
2018-02-22T00:14:51.420Z,46.04
2018-02-22T00:17:18.883Z,45.66
2018-02-22T00:19:46.353Z,46.17
2018-02-22T00:22:18.713Z,46.31
2018-02-22T00:24:46.253Z,46.64
2018-02-22T00:27:13.697Z,46.84
2018-02-22T00:29:41.138Z,47.71
2018-02-22T00:32:09.217Z,47.48
2018-02-22T00:34:36.847Z,46.09
2018-02-22T00:37:04.298Z,46.63
2018-02-22T00:39:31.742Z,45.55
2018-02-22T00:41:59.198Z,46.79
2018-02-22T00:44:26.646Z,46.55
2018-02-22T00:46:54.135Z,46.13
2018-02-22T00:49:21.601Z,45.85
2018-02-22T00:51:49.157Z,46.99
2018-02-22T00:54:16.617Z,47.32
2018-02-22T00:56:44.097Z,46.43
2018-02-22T00:59:11.538Z,47.38
2018-02-22T01:01:39.346Z,47.50
2018-02-22T01:04:06.798Z,47.79
2018-02-22T01:06:34.324Z,47.08
2018-02-22T01:09:01.773Z,47.17
2018-02-22T01:11:29.220Z,47.03
2018-02-22T01:13:56.664Z,46.85
2018-02-22T01:16:24.281Z,46.96
2018-02-22T01:18:51.816Z,46.55
2018-02-22T01:21:19.378Z,47.05
2018-02-22T01:23:46.866Z,46.57
2018-02-22T01:26:14.348Z,47.76
2018-02-22T01:28:41.862Z,47.57
2018-02-22T01:31:09.486Z,46.77
2018-02-22T01:33:36.993Z,47.51
2018-02-22T01:36:04.426Z,47.74
2018-02-22T01:38:32.020Z,46.98
2018-02-22T01:40:59.489Z,47.26
2018-02-22T01:43:27.102Z,47.51
2018-02-22T01:45:54.541Z,48.10
2018-02-22T01:48:22.034Z,48.09
2018-02-22T01:50:49.628Z,46.71
2018-02-22T01:53:17.110Z,47.16
2018-02-22T01:55:44.543Z,46.84
2018-02-22T01:58:12.019Z,47.13
2018-02-22T02:00:39.885Z,47.51
2018-02-22T02:03:07.620Z,48.10
2018-02-22T02:05:35.101Z,48.09
2018-02-22T02:08:02.621Z,47.45
2018-02-22T02:10:30.045Z,47.14
2018-02-22T02:12:57.497Z,47.59
2018-02-22T02:15:24.941Z,46.91
2018-02-22T02:17:52.683Z,47.25
2018-02-22T02:20:20.202Z,46.55
2018-02-22T02:22:47.915Z,47.32
2018-02-22T02:25:16.282Z,48.27
2018-02-22T02:27:49.258Z,47.95
2018-02-22T02:30:16.842Z,47.81
2018-02-22T02:32:44.383Z,48.06
2018-02-22T02:35:11.856Z,47.74
2018-02-22T02:37:39.807Z,46.59
2018-02-22T02:40:07.354Z,47.57
2018-02-22T02:42:34.800Z,47.76
2018-02-22T02:45:02.287Z,47.59
2018-02-22T02:47:29.766Z,46.80
2018-02-22T02:49:57.203Z,47.13
2018-02-22T02:52:24.660Z,47.19
2018-02-22T02:54:52.103Z,48.43
2018-02-22T02:57:19.560Z,48.34
2018-02-22T02:59:47.017Z,47.83
2018-02-22T03:02:14.556Z,47.73
2018-02-22T03:04:42.027Z,48.12
2018-02-22T03:07:09.977Z,47.83
2018-02-22T03:09:37.414Z,47.84
2018-02-22T03:12:04.904Z,48.17
2018-02-22T03:14:32.341Z,48.11
2018-02-22T03:17:00.058Z,48.46
2018-02-22T03:19:27.521Z,48.42
2018-02-22T03:21:55.034Z,48.20
2018-02-22T03:24:22.499Z,47.84
2018-02-22T03:26:50.065Z,48.34
2018-02-22T03:29:17.554Z,48.98
2018-02-22T03:31:45.082Z,49.21
2018-02-22T03:34:12.549Z,48.83
2018-02-22T03:36:40.100Z,48.91
2018-02-22T03:39:08.028Z,49.68
2018-02-22T03:41:35.481Z,49.25
2018-02-22T03:44:02.941Z,48.90
2018-02-22T03:46:30.581Z,49.13
2018-02-22T03:48:58.033Z,49.77
2018-02-22T03:51:25.469Z,49.58
2018-02-22T03:53:52.921Z,50.09
2018-02-22T03:56:20.368Z,49.39
2018-02-22T03:58:47.853Z,48.76
2018-02-22T04:01:15.314Z,49.13
2018-02-22T04:03:42.801Z,48.54
2018-02-22T04:06:10.313Z,48.88
2018-02-22T04:08:37.778Z,49.12
2018-02-22T04:11:05.567Z,49.08
2018-02-22T04:13:33.039Z,49.41
2018-02-22T04:16:00.494Z,49.60
2018-02-22T04:18:27.945Z,48.02
2018-02-22T04:20:55.410Z,49.10
2018-02-22T04:23:22.867Z,49.38
2018-02-22T04:25:50.329Z,49.33
2018-02-22T04:28:18.092Z,49.22
2018-02-22T04:30:45.530Z,49.23
2018-02-22T04:33:13.002Z,49.32
2018-02-22T04:35:40.442Z,49.28
2018-02-22T04:38:07.885Z,49.91
2018-02-22T04:40:35.321Z,49.68
2018-02-22T04:43:02.777Z,49.39
2018-02-22T04:45:30.221Z,49.80
2018-02-22T04:47:57.680Z,50.01
2018-02-22T04:50:25.186Z,50.08
2018-02-22T04:52:52.605Z,49.99
2018-02-22T04:55:20.088Z,49.55
2018-02-22T04:57:47.551Z,49.37
2018-02-22T05:00:14.989Z,49.49
2018-02-22T05:02:42.467Z,49.68
2018-02-22T05:05:10.445Z,49.47
2018-02-22T05:07:37.920Z,50.11
2018-02-22T05:10:05.345Z,50.17
2018-02-22T05:12:32.803Z,50.11
2018-02-22T05:15:00.243Z,49.83
2018-02-22T05:17:27.702Z,49.64
2018-02-22T05:19:55.186Z,49.55
2018-02-22T05:22:22.643Z,50.25
2018-02-22T05:24:50.092Z,50.36
2018-02-22T05:27:17.549Z,50.97
2018-02-22T05:29:45.003Z,51.04
2018-02-22T05:32:12.494Z,50.38
2018-02-22T05:34:40.666Z,50.59
2018-02-22T05:37:08.126Z,50.52
2018-02-22T05:39:35.598Z,50.49
2018-02-22T05:42:03.065Z,51.55
2018-02-22T05:44:30.529Z,51.58
2018-02-22T05:46:57.976Z,50.97
2018-02-22T05:49:25.434Z,50.74
2018-02-22T05:51:52.882Z,51.17
2018-02-22T05:54:20.375Z,51.26
2018-02-22T05:56:47.801Z,51.05
2018-02-22T05:59:15.278Z,50.95
2018-02-22T06:01:42.729Z,50.70
2018-02-22T06:04:10.716Z,49.86
2018-02-22T06:06:38.155Z,50.29
2018-02-22T06:09:05.597Z,49.73
2018-02-22T06:11:33.061Z,50.55
2018-02-22T06:14:00.549Z,50.63
2018-02-22T06:16:28.020Z,51.57
2018-02-22T06:18:55.457Z,51.02
2018-02-22T06:21:22.915Z,50.89
2018-02-22T06:23:50.387Z,51.17
2018-02-22T06:26:17.904Z,50.83
2018-02-22T06:28:45.337Z,51.28
2018-02-22T06:31:12.799Z,50.32
2018-02-22T06:33:40.973Z,50.86
2018-02-22T06:36:08.419Z,50.83
2018-02-22T06:38:35.913Z,50.74
2018-02-22T06:41:03.337Z,50.55
2018-02-22T06:43:30.777Z,50.68
2018-02-22T06:45:58.202Z,50.10
2018-02-22T06:48:25.663Z,49.95
2018-02-22T06:50:53.387Z,50.31
2018-02-22T06:53:20.869Z,49.35
2018-02-22T06:55:48.408Z,50.00
2018-02-22T06:58:15.882Z,50.19
2018-02-22T07:00:43.342Z,49.79
2018-02-22T07:03:11.247Z,49.78
2018-02-22T07:05:38.695Z,49.54
2018-02-22T07:08:06.163Z,49.63
2018-02-22T07:10:33.671Z,49.19
2018-02-22T07:13:01.113Z,49.66
2018-02-22T07:15:28.609Z,49.54
2018-02-22T07:17:56.074Z,49.61
2018-02-22T07:20:23.525Z,49.61
2018-02-22T07:22:51.052Z,48.81
2018-02-22T07:25:18.639Z,48.80
2018-02-22T07:27:46.068Z,48.50
2018-02-22T07:30:13.542Z,48.31
2018-02-22T07:32:41.154Z,48.27
2018-02-22T07:35:08.586Z,48.71
2018-02-22T07:37:36.048Z,48.40
2018-02-22T07:40:03.492Z,48.22
2018-02-22T07:42:30.963Z,47.82
2018-02-22T07:44:58.405Z,47.74
2018-02-22T07:47:25.947Z,47.83
2018-02-22T07:49:53.381Z,47.78
2018-02-22T07:52:21.902Z,47.53
2018-02-22T07:54:49.345Z,47.09
2018-02-22T07:57:16.825Z,47.46
2018-02-22T07:59:44.354Z,47.55
2018-02-22T08:02:12.098Z,47.18
2018-02-22T08:04:39.529Z,47.16
2018-02-22T08:07:07.002Z,46.91
2018-02-22T08:09:34.431Z,46.70
2018-02-22T08:12:01.879Z,46.24
2018-02-22T08:14:29.336Z,46.14
2018-02-22T08:16:56.762Z,45.72
2018-02-22T08:19:24.220Z,45.44
2018-02-22T08:21:51.661Z,45.23
2018-02-22T08:24:19.123Z,45.34
2018-02-22T08:26:46.568Z,45.11
2018-02-22T08:29:14.029Z,44.83
2018-02-22T08:31:41.470Z,44.58
2018-02-22T08:34:09.796Z,44.17
2018-02-22T08:36:46.218Z,43.86
2018-02-22T08:39:13.724Z,44.10
2018-02-22T08:41:41.469Z,43.63
2018-02-22T08:44:08.928Z,43.50
2018-02-22T08:46:36.417Z,42.94
2018-02-22T08:49:03.866Z,42.52
2018-02-22T08:51:31.311Z,42.42
2018-02-22T08:53:58.781Z,41.73
2018-02-22T08:56:26.229Z,42.36
2018-02-22T08:58:53.706Z,41.80
2018-02-22T09:01:21.153Z,41.32
2018-02-22T09:03:48.601Z,40.81
2018-02-22T09:06:16.131Z,40.87
2018-02-22T09:08:43.649Z,40.79
2018-02-22T09:11:11.707Z,40.45
2018-02-22T09:13:39.141Z,40.45
2018-02-22T09:16:06.577Z,40.63
2018-02-22T09:18:34.009Z,39.78
2018-02-22T09:21:01.436Z,39.60
2018-02-22T09:23:28.872Z,38.72
2018-02-22T09:25:56.310Z,38.42
2018-02-22T09:28:23.757Z,39.09
2018-02-22T09:30:51.419Z,38.73
2018-02-22T09:33:18.890Z,38.18
2018-02-22T09:35:46.330Z,36.73
2018-02-22T09:38:13.762Z,36.80
2018-02-22T09:40:41.688Z,35.58
2018-02-22T09:43:09.120Z,34.23
2018-02-22T09:45:36.570Z,33.74
2018-02-22T09:48:04.006Z,33.60
2018-02-22T09:50:31.429Z,33.52
2018-02-22T09:52:58.854Z,33.12
2018-02-22T09:55:26.366Z,33.18
2018-02-22T09:57:53.780Z,33.12
2018-02-22T10:00:21.239Z,32.81
2018-02-22T10:02:48.692Z,32.62
2018-02-22T10:05:16.126Z,32.51
2018-02-22T10:07:43.551Z,32.61
2018-02-22T10:10:11.841Z,32.15
2018-02-22T10:12:39.661Z,31.76
2018-02-22T10:15:07.105Z,31.79
2018-02-22T10:17:34.532Z,31.73
2018-02-22T10:20:02.022Z,31.69
2018-02-22T10:22:29.426Z,31.52
2018-02-22T10:24:56.886Z,31.42
2018-02-22T10:27:24.338Z,31.26
2018-02-22T10:29:51.800Z,31.14
2018-02-22T10:32:19.252Z,31.13
2018-02-22T10:34:51.293Z,31.14
2018-02-22T10:37:27.848Z,30.64
2018-02-22T10:39:55.471Z,30.94
2018-02-22T10:42:22.951Z,30.68
2018-02-22T10:44:50.446Z,30.68
2018-02-22T10:47:17.874Z,30.57
2018-02-22T10:49:45.307Z,29.74
2018-02-22T10:52:13.451Z,30.41
2018-02-22T10:54:40.900Z,30.33
2018-02-22T10:57:08.463Z,30.09
2018-02-22T10:59:35.917Z,30.33
2018-02-22T11:02:09.009Z,29.76
2018-02-22T11:04:36.511Z,30.29
2018-02-22T11:07:03.953Z,29.98
2018-02-22T11:09:31.407Z,30.24
2018-02-22T11:11:58.883Z,30.75
2018-02-22T11:14:26.946Z,30.99
2018-02-22T11:20:02.428Z,30.91
2018-02-22T11:22:30.057Z,31.00
2018-02-22T11:24:57.447Z,30.95
2018-02-22T11:27:24.943Z,30.50
2018-02-22T11:29:52.334Z,30.38
2018-02-22T11:32:19.788Z,30.56
2018-02-22T11:34:47.177Z,30.10
2018-02-22T11:37:14.542Z,30.07
2018-02-22T11:39:42.265Z,29.80
2018-02-22T11:42:09.626Z,29.41
2018-02-22T11:44:37.004Z,29.74
2018-02-22T11:47:04.366Z,28.93
2018-02-22T11:49:31.795Z,29.53
2018-02-22T11:51:59.357Z,28.69
2018-02-22T11:54:26.764Z,28.70
2018-02-22T11:56:54.130Z,28.29
2018-02-22T11:59:21.525Z,28.19
2018-02-22T12:01:48.900Z,28.08
2018-02-22T12:04:16.267Z,27.74
2018-02-22T12:06:43.693Z,27.26
2018-02-22T12:09:11.105Z,27.45
2018-02-22T12:11:38.495Z,27.19
2018-02-22T12:14:05.880Z,27.23
2018-02-22T12:16:33.248Z,26.79
2018-02-22T12:19:00.625Z,26.62
2018-02-22T12:21:28.014Z,26.69
2018-02-22T12:23:55.435Z,25.64
2018-02-22T12:26:22.772Z,26.32
2018-02-22T12:28:50.154Z,25.91
2018-02-22T12:31:17.560Z,25.70
2018-02-22T12:33:45.026Z,25.45
2018-02-22T12:36:12.482Z,25.44
2018-02-22T12:38:39.858Z,24.76
2018-02-22T12:41:07.237Z,24.43
2018-02-22T12:43:34.636Z,24.53
2018-02-22T12:46:02.027Z,23.88
2018-02-22T12:48:29.501Z,25.33
2018-02-22T12:50:56.893Z,23.60
2018-02-22T12:53:29.357Z,23.78
2018-02-22T12:56:00.796Z,23.08
2018-02-22T12:58:29.800Z,23.32
2018-02-22T13:00:57.206Z,24.22
2018-02-22T13:03:24.579Z,23.08
2018-02-22T13:05:51.992Z,22.42
2018-02-22T13:08:19.368Z,22.52
2018-02-22T13:10:46.747Z,22.09
2018-02-22T13:13:14.142Z,20.82
2018-02-22T13:15:41.558Z,21.12
2018-02-22T13:18:08.950Z,20.26
2018-02-22T13:20:36.346Z,20.04
2018-02-22T13:23:03.755Z,19.12
2018-02-22T13:25:31.142Z,19.45
2018-02-22T13:27:58.520Z,20.17
2018-02-22T13:30:26.905Z,20.17
2018-02-22T13:33:09.177Z,20.77
2018-02-22T13:35:44.301Z,20.62
2018-02-22T13:38:25.074Z,20.00
2018-02-22T13:40:52.594Z,20.03
2018-02-22T13:43:19.982Z,19.27
2018-02-22T13:45:47.378Z,20.13
2018-02-22T13:48:14.798Z,19.15
2018-02-22T13:50:54.467Z,18.83
2018-02-22T13:53:21.848Z,18.66
2018-02-22T13:55:49.226Z,18.59
2018-02-22T13:58:16.607Z,18.42
2018-02-22T14:00:55.864Z,18.15
2018-02-22T14:03:23.251Z,17.46
2018-02-22T14:05:50.642Z,17.89
2018-02-22T14:08:29.707Z,17.72
2018-02-22T14:10:57.147Z,17.77
2018-02-22T14:13:24.501Z,18.00
2018-02-22T14:15:51.877Z,18.03
2018-02-22T14:18:19.275Z,18.15
2018-02-22T14:20:46.642Z,17.41
2018-02-22T14:23:14.022Z,17.69
2018-02-22T14:25:41.397Z,17.83
2018-02-22T14:28:08.797Z,17.53
2018-02-22T14:30:36.180Z,17.15
2018-02-22T14:33:03.579Z,17.28
2018-02-22T14:35:31.008Z,17.52
2018-02-22T14:37:58.391Z,16.42
2018-02-22T14:40:25.797Z,17.88
2018-02-22T14:42:57.807Z,16.92
2018-02-22T14:45:30.929Z,17.16
2018-02-22T14:47:58.695Z,18.08
2018-02-22T14:50:26.082Z,18.25
2018-02-22T14:52:53.486Z,17.66
2018-02-22T14:55:20.856Z,17.59
2018-02-22T14:57:48.222Z,17.63
2018-02-22T15:00:15.608Z,17.63
2018-02-22T15:02:43.210Z,18.10
2018-02-22T15:05:10.590Z,17.77
2018-02-22T15:07:37.966Z,17.58
2018-02-22T15:10:05.354Z,18.06
2018-02-22T15:12:32.755Z,18.40
2018-02-22T15:15:00.111Z,19.63
2018-02-22T15:17:27.489Z,20.38
2018-02-22T15:19:54.860Z,21.32
2018-02-22T15:22:22.253Z,21.97
2018-02-22T15:24:49.620Z,22.15
2018-02-22T15:27:17.020Z,22.95
2018-02-22T15:29:44.395Z,23.00
2018-02-22T15:32:11.778Z,23.75
2018-02-22T15:34:39.209Z,23.98
2018-02-22T15:37:06.585Z,23.68
2018-02-22T15:39:34.102Z,24.07
2018-02-22T15:42:01.624Z,24.16
2018-02-22T15:44:29.005Z,25.02
2018-02-22T15:46:56.389Z,24.66
2018-02-22T15:49:23.837Z,25.09
2018-02-22T15:51:51.231Z,24.71
2018-02-22T15:54:18.702Z,24.70
2018-02-22T15:56:46.065Z,24.86
2018-02-22T15:59:13.510Z,25.26
2018-02-22T16:01:40.948Z,25.67
2018-02-22T16:04:08.307Z,25.23
2018-02-22T16:06:35.677Z,24.98
2018-02-22T16:09:03.049Z,25.06
2018-02-22T16:11:30.486Z,25.92
2018-02-22T16:13:57.862Z,26.11
2018-02-22T16:16:25.239Z,26.13
2018-02-22T16:18:52.607Z,26.78
2018-02-22T16:21:20.010Z,27.28
2018-02-22T16:23:47.377Z,26.92
2018-02-22T16:26:14.752Z,27.25
2018-02-22T16:28:42.157Z,27.63
2018-02-22T16:31:09.502Z,27.31
2018-02-22T16:33:36.953Z,28.17
2018-02-22T16:36:04.401Z,28.24
2018-02-22T16:38:31.769Z,27.72
2018-02-22T16:40:59.171Z,28.07
2018-02-22T16:43:26.567Z,28.72
2018-02-22T16:45:53.964Z,28.03
2018-02-22T16:48:21.359Z,28.44
2018-02-22T16:50:48.733Z,29.12
2018-02-22T16:53:16.115Z,28.97
2018-02-22T16:55:43.831Z,29.00
2018-02-22T16:58:11.190Z,29.17
2018-02-22T17:00:38.609Z,29.24
2018-02-22T17:03:05.990Z,29.37
2018-02-22T17:05:33.370Z,30.38
2018-02-22T17:08:00.784Z,30.40
2018-02-22T17:10:28.162Z,30.53
2018-02-22T17:12:55.533Z,30.24
2018-02-22T17:15:23.047Z,30.45
2018-02-22T17:17:50.411Z,30.60
2018-02-22T17:20:18.614Z,30.63
2018-02-22T17:22:46.067Z,30.83
2018-02-22T17:25:13.844Z,31.07
2018-02-22T17:27:46.889Z,30.43
2018-02-22T17:30:19.723Z,29.86
2018-02-22T17:32:47.202Z,30.90
2018-02-22T17:48:34.346Z,31.32
2018-02-22T17:51:01.762Z,31.58
2018-02-22T17:53:29.161Z,31.25
2018-02-22T17:55:56.539Z,31.31
2018-02-22T17:58:23.992Z,31.40
2018-02-22T18:00:51.306Z,31.77
2018-02-22T18:03:18.689Z,32.10
2018-02-22T18:05:46.130Z,32.25
2018-02-22T18:08:14.064Z,32.07
2018-02-22T18:10:47.580Z,32.50
2018-02-22T18:13:23.138Z,32.25
2018-02-22T18:15:50.689Z,31.99
2018-02-22T18:18:18.116Z,32.48
2018-02-22T18:20:45.501Z,32.63
2018-02-22T18:23:12.882Z,32.93
2018-02-22T18:25:41.314Z,33.23
2018-02-22T18:28:08.692Z,33.12
2018-02-22T18:30:36.088Z,33.73
2018-02-22T18:33:03.614Z,33.37
2018-02-22T18:35:31.054Z,33.03
2018-02-22T18:37:59.368Z,32.44
2018-02-22T18:40:32.686Z,32.64
2018-02-22T18:43:00.195Z,33.76
2018-02-22T18:45:27.922Z,34.35
2018-02-22T18:47:55.316Z,33.40
2018-02-22T18:50:23.066Z,33.26
2018-02-22T18:52:50.638Z,33.33
2018-02-22T18:55:18.067Z,33.58
2018-02-22T18:57:45.442Z,33.03
2018-02-22T19:00:13.031Z,33.56
2018-02-22T19:02:40.463Z,33.50
2018-02-22T19:05:07.893Z,33.60
2018-02-22T19:07:35.583Z,33.79
2018-02-22T19:10:03.020Z,34.36
2018-02-22T19:12:30.516Z,34.38
2018-02-22T19:14:58.001Z,34.73
2018-02-22T19:17:25.443Z,34.59
2018-02-22T19:19:52.850Z,34.94
2018-02-22T19:22:20.343Z,34.77
2018-02-22T19:24:47.722Z,35.04
2018-02-22T19:27:15.218Z,34.30
2018-02-22T19:29:42.724Z,34.59
2018-02-22T19:32:10.167Z,34.68
2018-02-22T19:34:37.535Z,34.57
2018-02-22T19:37:05.190Z,35.19
2018-02-22T19:39:32.614Z,35.74
2018-02-22T19:42:00.021Z,35.62
2018-02-22T19:44:27.520Z,35.72
2018-02-22T19:46:54.909Z,35.84
2018-02-22T19:49:22.408Z,36.22
2018-02-22T19:51:49.802Z,36.39
2018-02-22T19:54:17.349Z,36.41
2018-02-22T19:56:44.716Z,36.55
2018-02-22T19:59:12.090Z,36.41
2018-02-22T20:01:39.453Z,37.05
2018-02-22T20:04:06.882Z,36.39
2018-02-22T20:06:34.361Z,36.59
2018-02-22T20:09:02.026Z,36.43
2018-02-22T20:11:29.527Z,36.68
2018-02-22T20:13:56.920Z,36.52
2018-02-22T20:16:24.406Z,36.61
2018-02-22T20:18:52.026Z,36.21
2018-02-22T20:21:19.412Z,36.60
2018-02-22T20:23:46.834Z,36.90
2018-02-22T20:26:14.911Z,36.53
2018-02-22T20:28:42.362Z,36.87
2018-02-22T20:31:09.754Z,37.23
2018-02-22T20:33:37.167Z,36.90
2018-02-22T20:36:04.559Z,36.58
2018-02-22T20:38:31.927Z,36.82
2018-02-22T20:40:59.376Z,36.92
2018-02-22T20:43:26.769Z,36.74
2018-02-22T20:45:54.294Z,36.34
2018-02-22T20:48:21.721Z,37.30
2018-02-22T20:50:49.141Z,37.30
2018-02-22T20:53:17.014Z,37.34
2018-02-22T20:55:45.450Z,37.23
2018-02-22T20:58:12.986Z,37.73
2018-02-22T21:00:40.459Z,37.06
2018-02-22T21:03:07.820Z,37.21
2018-02-22T21:05:35.205Z,37.21
2018-02-22T21:08:02.609Z,37.06
2018-02-22T21:10:30.168Z,37.05
2018-02-22T21:12:59.345Z,36.17
2018-02-22T21:15:26.844Z,36.98
2018-02-22T21:17:54.204Z,37.54
2018-02-22T21:20:21.651Z,38.07
2018-02-22T21:22:49.080Z,37.28
2018-02-22T21:25:17.235Z,37.23
2018-02-22T21:27:44.637Z,37.14
2018-02-22T21:30:12.022Z,38.00
2018-02-22T21:32:40.220Z,38.29
2018-02-22T21:35:07.571Z,37.57
2018-02-22T21:37:37.587Z,37.97
2018-02-22T21:40:04.987Z,38.21
2018-02-22T21:42:32.395Z,38.04
2018-02-22T21:44:59.797Z,37.58
2018-02-22T21:47:27.161Z,38.50
2018-02-22T21:49:54.542Z,38.07
2018-02-22T21:52:21.945Z,38.52
2018-02-22T21:54:49.538Z,38.09
2018-02-22T21:57:16.895Z,38.28
2018-02-22T21:59:47.310Z,39.02
2018-02-22T22:02:14.673Z,38.96
2018-02-22T22:04:42.148Z,38.60
2018-02-22T22:07:09.626Z,38.47
2018-02-22T22:09:37.011Z,38.86
2018-02-22T22:12:04.386Z,39.01
2018-02-22T22:14:31.763Z,38.64
2018-02-22T22:16:59.192Z,39.46
2018-02-22T22:19:26.583Z,39.26
2018-02-22T22:21:53.955Z,38.78
2018-02-22T22:24:21.336Z,38.99
2018-02-22T22:26:48.756Z,38.64
2018-02-22T22:29:16.236Z,38.44
2018-02-22T22:31:43.604Z,38.66
2018-02-22T22:34:10.985Z,39.16
2018-02-22T22:36:38.365Z,38.97
2018-02-22T22:39:05.761Z,39.16
2018-02-22T22:41:33.169Z,39.08
2018-02-22T22:44:00.618Z,39.20
2018-02-22T22:46:28.037Z,38.71
2018-02-22T22:48:55.409Z,38.66
2018-02-22T22:51:23.313Z,38.35
2018-02-22T22:53:50.742Z,39.12
2018-02-22T22:56:18.220Z,39.33
2018-02-22T22:58:45.590Z,39.24
2018-02-22T23:01:12.987Z,39.75
2018-02-22T23:03:40.505Z,39.54
2018-02-22T23:06:07.918Z,39.65
2018-02-22T23:08:35.350Z,39.29
2018-02-22T23:11:02.729Z,39.41
2018-02-22T23:13:30.146Z,39.64
2018-02-22T23:15:57.571Z,39.48
2018-02-22T23:18:25.032Z,39.38
2018-02-22T23:20:53.111Z,39.56
2018-02-22T23:23:20.533Z,39.82
2018-02-22T23:25:49.011Z,39.96
2018-02-22T23:28:16.514Z,39.51
2018-02-22T23:30:43.901Z,39.12
2018-02-22T23:33:12.089Z,39.29
2018-02-22T23:35:39.457Z,39.12
2018-02-22T23:38:06.890Z,39.27
2018-02-22T23:40:40.049Z,39.49
2018-02-22T23:43:09.499Z,39.88
2018-02-22T23:45:36.892Z,39.97
2018-02-22T23:48:04.299Z,40.31
2018-02-22T23:50:31.807Z,39.80
2018-02-22T23:52:59.190Z,39.74
2018-02-22T23:55:26.569Z,39.54
2018-02-22T23:57:54.076Z,39.78
